Terminal Aerodrome Forecast
Issued by NWS Portland, OR

Home | Current Version | Previous Version | Text Only | Print | Product List | Glossary On
Versions: 1 2 3 4 5 6 7 8 9 10 11 12 13 14 15 16 17 18 19 20 21 22 23 24 25 26 27 28 29 30 31 32
000
FTUS46 KPQR 271728
TAFAST
TAF
KAST 271728Z 2718/2818 10005KT P6SM -SHRA BKN025 OVC050
     FM271900 26008KT P6SM -SHRA SCT015 BKN025 OVC050
     FM272200 26013G19KT 6SM -SHRA SCT015 BKN025 OVC050
     FM280400 25009KT P6SM -SHRA BKN025 BKN050
     FM280700 25006KT P6SM VCSH BKN035 BKN050=

USA.gov is the U.S. government's official web portal to all federal, state and local government web resources and services.